Time;durP1;ratioP1;P1;durP2;ratioP2;P2;SDS_P1;SDS_P2;PMS_P1;PMS_P2;Temp;Humidity;BMP_temperature;BMP_pressure;BME280_temperature;BME280_humidity;BME280_pressure;Samples;Min_cycle;Max_cycle;Signal;HPM_P1;HPM_P2
2022/08/05 00:00:40;;;;;;;;;;;21.90;99.90;;;;;;4136349;28;20453;-55
2022/08/05 00:02:47;;;;;;;;;;;21.80;99.90;;;;;;4130224;28;20377;-54
2022/08/05 00:04:53;;;;;;;;;;;21.70;99.90;;;;;;4145831;28;19928;-55
2022/08/05 00:06:56;;;;;;;;;;;21.50;99.90;;;;;;4136992;28;19926;-56
2022/08/05 00:09:03;;;;;;;;;;;21.60;99.90;;;;;;4129453;28;19921;-56
2022/08/05 00:11:07;;;;;;;;;;;21.60;99.90;;;;;;4132172;28;19926;-55
2022/08/05 00:13:23;;;;;;;;;;;21.50;99.90;;;;;;4145082;28;20278;-56
2022/08/05 00:15:40;;;;;;;;;;;21.30;99.90;;;;;;4143788;28;19932;-56
2022/08/05 00:17:57;;;;;;;;;;;21.10;99.90;;;;;;4137534;28;20261;-55
2022/08/05 00:19:59;;;;;;;;;;;21.00;99.90;;;;;;4145487;28;19925;-56
2022/08/05 00:22:03;;;;;;;;;;;20.80;99.90;;;;;;4144078;28;19928;-56
2022/08/05 00:24:06;;;;;;;;;;;20.80;99.90;;;;;;4145598;28;19925;-55
2022/08/05 00:26:14;;;;;;;;;;;20.90;99.90;;;;;;4145457;28;19923;-56
2022/08/05 00:28:17;;;;;;;;;;;20.80;99.90;;;;;;4144528;28;20278;-56
2022/08/05 00:30:31;;;;;;;;;;;20.90;99.90;;;;;;4129285;28;20359;-55
2022/08/05 00:32:33;;;;;;;;;;;21.00;99.90;;;;;;4138461;28;19925;-56
2022/08/05 00:34:35;;;;;;;;;;;21.10;99.90;;;;;;4145094;28;19987;-56
2022/08/05 00:37:01;;;;;;;;;;;21.00;99.90;;;;;;4129588;28;19930;-54
2022/08/05 00:39:14;;;;;;;;;;;21.00;99.90;;;;;;4140722;28;19921;-54
2022/08/05 00:41:28;;;;;;;;;;;21.10;99.90;;;;;;4138999;28;20790;-56
2022/08/05 00:43:33;;;;;;;;;;;21.10;99.90;;;;;;4144883;28;19926;-55
2022/08/05 00:46:08;;;;;;;;;;;21.10;99.90;;;;;;4144968;28;20412;-56
2022/08/05 00:48:11;;;;;;;;;;;21.10;99.90;;;;;;4138054;28;20340;-55
2022/08/05 00:50:14;;;;;;;;;;;21.00;99.90;;;;;;4136155;28;19926;-56
2022/08/05 00:52:16;;;;;;;;;;;20.90;99.90;;;;;;4145099;28;19921;-54
2022/08/05 00:54:20;;;;;;;;;;;20.80;99.90;;;;;;4140345;28;19968;-55
2022/08/05 00:56:23;;;;;;;;;;;20.70;99.90;;;;;;4129008;28;19925;-55
2022/08/05 00:58:26;;;;;;;;;;;20.60;99.90;;;;;;4141223;28;19968;-56
2022/08/05 01:00:30;;;;;;;;;;;20.60;99.90;;;;;;4141705;28;19929;-56
2022/08/05 01:02:41;;;;;;;;;;;20.50;99.90;;;;;;4129113;28;20012;-55
2022/08/05 01:04:45;;;;;;;;;;;20.50;99.90;;;;;;4140209;28;19976;-54
2022/08/05 01:06:52;;;;;;;;;;;20.40;99.90;;;;;;4141792;28;20313;-55
2022/08/05 01:09:10;;;;;;;;;;;20.40;99.90;;;;;;4127341;28;19925;-55
2022/08/05 01:11:21;;;;;;;;;;;20.40;99.90;;;;;;4140961;28;20417;-57
2022/08/05 01:13:37;;;;;;;;;;;20.40;99.90;;;;;;4144910;28;19926;-55
2022/08/05 01:16:03;;;;;;;;;;;20.40;99.90;;;;;;4144618;28;19925;-55
2022/08/05 01:18:13;;;;;;;;;;;20.30;99.90;;;;;;4138396;28;20020;-55
2022/08/05 01:20:38;;;;;;;;;;;20.40;99.90;;;;;;4128304;28;19929;-57
2022/08/05 01:22:47;;;;;;;;;;;20.40;99.90;;;;;;4109742;28;19933;-56
2022/08/05 01:24:49;;;;;;;;;;;20.30;99.90;;;;;;4145074;28;19922;-56
2022/08/05 01:26:58;;;;;;;;;;;20.30;99.90;;;;;;4135700;28;19926;-55
2022/08/05 01:29:23;;;;;;;;;;;20.20;99.90;;;;;;4135700;28;19969;-56
2022/08/05 01:31:43;;;;;;;;;;;20.20;99.90;;;;;;4148022;28;20344;-55
2022/08/05 01:33:53;;;;;;;;;;;20.20;99.90;;;;;;4133490;28;20024;-55
2022/08/05 01:35:59;;;;;;;;;;;20.20;99.90;;;;;;4137947;28;20272;-55
2022/08/05 01:38:03;;;;;;;;;;;20.20;99.90;;;;;;4148158;28;19928;-55
2022/08/05 01:40:07;;;;;;;;;;;20.20;99.90;;;;;;4133881;28;19922;-56
2022/08/05 01:42:11;;;;;;;;;;;20.20;99.90;;;;;;4136479;28;19983;-56
2022/08/05 01:44:15;;;;;;;;;;;20.10;99.90;;;;;;4147805;28;19971;-54
2022/08/05 01:46:18;;;;;;;;;;;20.10;99.90;;;;;;4147762;28;19925;-54
2022/08/05 01:48:45;;;;;;;;;;;20.00;99.90;;;;;;4141664;28;20025;-56
2022/08/05 01:50:52;;;;;;;;;;;20.00;99.90;;;;;;4145512;28;19960;-56
2022/08/05 01:52:58;;;;;;;;;;;20.20;99.90;;;;;;4147376;28;19921;-55
2022/08/05 01:55:02;;;;;;;;;;;20.10;99.90;;;;;;4157335;28;19975;-55
2022/08/05 01:57:07;;;;;;;;;;;20.00;99.90;;;;;;4130193;28;19921;-56
2022/08/05 01:59:32;;;;;;;;;;;19.90;99.90;;;;;;4147590;28;19921;-55
2022/08/05 02:01:36;;;;;;;;;;;19.80;99.90;;;;;;4140513;28;19937;-56
2022/08/05 02:03:43;;;;;;;;;;;19.70;99.90;;;;;;4131570;28;19925;-57
2022/08/05 02:05:46;;;;;;;;;;;19.70;99.90;;;;;;4146458;28;19928;-54
2022/08/05 02:07:53;;;;;;;;;;;19.80;99.90;;;;;;4161946;28;19931;-55
2022/08/05 02:10:03;;;;;;;;;;;19.70;99.90;;;;;;4148070;28;20373;-54
2022/08/05 02:12:07;;;;;;;;;;;19.70;99.90;;;;;;4143773;28;19960;-56
2022/08/05 02:14:13;;;;;;;;;;;19.50;99.90;;;;;;4147530;28;20440;-56
2022/08/05 02:16:24;;;;;;;;;;;19.50;99.90;;;;;;4146042;28;20328;-54
2022/08/05 02:18:32;;;;;;;;;;;19.50;99.90;;;;;;4146742;28;19980;-55
2022/08/05 02:20:58;;;;;;;;;;;19.60;99.90;;;;;;4145825;28;20392;-54
2022/08/05 02:23:04;;;;;;;;;;;19.60;99.90;;;;;;4147443;28;19932;-55
2022/08/05 02:25:16;;;;;;;;;;;19.40;99.90;;;;;;4131444;28;19929;-55
2022/08/05 02:27:20;;;;;;;;;;;19.30;99.90;;;;;;4138380;28;19925;-56
2022/08/05 02:29:33;;;;;;;;;;;19.20;99.90;;;;;;4145963;28;19925;-55
2022/08/05 02:31:59;;;;;;;;;;;19.20;99.90;;;;;;4131426;28;19922;-56
2022/08/05 02:34:14;;;;;;;;;;;19.20;99.90;;;;;;4143742;28;20316;-56
2022/08/05 02:36:19;;;;;;;;;;;19.30;99.90;;;;;;4141402;28;20020;-56
2022/08/05 02:38:24;;;;;;;;;;;19.30;99.90;;;;;;4146196;28;20399;-56
2022/08/05 02:40:30;;;;;;;;;;;19.20;99.90;;;;;;4142630;28;19936;-56
2022/08/05 02:42:32;;;;;;;;;;;19.10;99.90;;;;;;4144254;28;19980;-55
2022/08/05 02:44:40;;;;;;;;;;;19.10;99.90;;;;;;4145677;28;19921;-55
2022/08/05 02:46:44;;;;;;;;;;;19.10;99.90;;;;;;4147148;28;19932;-54
2022/08/05 02:49:07;;;;;;;;;;;19.00;99.90;;;;;;4155045;28;19929;-56
2022/08/05 02:51:14;;;;;;;;;;;18.80;99.90;;;;;;4131031;28;19922;-56
2022/08/05 02:53:17;;;;;;;;;;;18.70;99.90;;;;;;4143330;28;19961;-55
2022/08/05 02:55:21;;;;;;;;;;;18.60;99.90;;;;;;4143594;28;20384;-56
2022/08/05 02:57:44;;;;;;;;;;;18.70;99.90;;;;;;4130449;28;20017;-56
2022/08/05 03:00:07;;;;;;;;;;;18.80;99.90;;;;;;4146475;28;19928;-56
2022/08/05 03:02:11;;;;;;;;;;;18.80;99.90;;;;;;4138523;28;19922;-55
2022/08/05 03:04:20;;;;;;;;;;;18.80;99.90;;;;;;4130843;28;20378;-56
2022/08/05 03:06:26;;;;;;;;;;;18.60;99.90;;;;;;4145683;28;19925;-55
2022/08/05 03:09:12;;;;;;;;;;;18.60;99.90;;;;;;4141865;28;19987;-56
2022/08/05 03:11:20;;;;;;;;;;;18.50;99.90;;;;;;4146443;28;19930;-55
2022/08/05 03:13:42;;;;;;;;;;;18.50;99.90;;;;;;4146926;28;19935;-55
2022/08/05 03:15:53;;;;;;;;;;;18.60;99.90;;;;;;4131692;28;20421;-56
2022/08/05 03:17:55;;;;;;;;;;;18.60;99.90;;;;;;4138352;28;19921;-56
2022/08/05 03:19:59;;;;;;;;;;;18.60;99.90;;;;;;4146768;28;20419;-55
2022/08/05 03:22:19;;;;;;;;;;;18.60;99.90;;;;;;4131129;28;20368;-56
2022/08/05 03:24:53;;;;;;;;;;;18.70;99.90;;;;;;4140047;28;20340;-55
2022/08/05 03:26:58;;;;;;;;;;;18.60;99.90;;;;;;4145258;28;20008;-55
2022/08/05 03:29:03;;;;;;;;;;;18.60;99.90;;;;;;4130038;28;19954;-55
2022/08/05 03:31:08;;;;;;;;;;;18.60;99.90;;;;;;4137707;28;19971;-55
2022/08/05 03:33:10;;;;;;;;;;;18.60;99.90;;;;;;4146268;28;19922;-55
2022/08/05 03:35:13;;;;;;;;;;;18.50;99.90;;;;;;4130411;28;19926;-55
2022/08/05 03:37:16;;;;;;;;;;;18.60;99.90;;;;;;4136781;28;19975;-54
2022/08/05 03:39:25;;;;;;;;;;;18.60;99.90;;;;;;4146318;28;19929;-54
2022/08/05 03:41:27;;;;;;;;;;;18.50;99.90;;;;;;4130474;28;19925;-56
2022/08/05 03:43:37;;;;;;;;;;;18.50;99.90;;;;;;4136374;28;19931;-54
2022/08/05 03:46:00;;;;;;;;;;;18.40;99.90;;;;;;4145759;28;19929;-55
2022/08/05 03:48:03;;;;;;;;;;;18.30;99.90;;;;;;4145967;28;20397;-55
2022/08/05 03:50:07;;;;;;;;;;;18.30;99.90;;;;;;4145481;28;19922;-56
2022/08/05 03:52:18;;;;;;;;;;;18.30;99.90;;;;;;4146000;28;19921;-55
2022/08/05 03:54:51;;;;;;;;;;;18.20;99.90;;;;;;4129793;28;20417;-56
2022/08/05 03:57:16;;;;;;;;;;;18.30;99.90;;;;;;4143613;28;19987;-56
2022/08/05 03:59:22;;;;;;;;;;;18.20;99.90;;;;;;4141015;28;19929;-55
2022/08/05 04:01:27;;;;;;;;;;;18.20;99.90;;;;;;4129679;28;19989;-54
2022/08/05 04:03:36;;;;;;;;;;;18.30;99.90;;;;;;4142977;28;19936;-54
2022/08/05 04:05:41;;;;;;;;;;;18.20;99.90;;;;;;4141450;28;20410;-56
2022/08/05 04:07:54;;;;;;;;;;;18.20;99.90;;;;;;4136662;28;19931;-56
2022/08/05 04:10:02;;;;;;;;;;;18.20;99.90;;;;;;4145906;28;20016;-56
2022/08/05 04:12:05;;;;;;;;;;;18.20;99.90;;;;;;4145424;28;19921;-55
2022/08/05 04:14:26;;;;;;;;;;;18.10;99.90;;;;;;4145611;28;20475;-57
2022/08/05 04:16:52;;;;;;;;;;;18.10;99.90;;;;;;4129495;28;19948;-56
2022/08/05 04:19:13;;;;;;;;;;;18.20;99.90;;;;;;4142920;28;19921;-57
2022/08/05 04:21:16;;;;;;;;;;;18.30;99.90;;;;;;4142580;28;19927;-56
2022/08/05 04:23:39;;;;;;;;;;;18.10;99.90;;;;;;4129483;28;20377;-55
2022/08/05 04:26:03;;;;;;;;;;;18.10;99.90;;;;;;4144084;28;19943;-56
2022/08/05 04:28:05;;;;;;;;;;;18.30;99.90;;;;;;4145090;28;19948;-56
2022/08/05 04:30:34;;;;;;;;;;;18.30;99.90;;;;;;4135119;28;19933;-56
2022/08/05 04:32:36;;;;;;;;;;;18.30;99.90;;;;;;4145238;28;19932;-56
2022/08/05 04:34:43;;;;;;;;;;;18.30;99.90;;;;;;4137020;28;19922;-56
2022/08/05 04:36:45;;;;;;;;;;;18.20;99.90;;;;;;4129346;28;19922;-56
2022/08/05 04:38:53;;;;;;;;;;;18.10;99.90;;;;;;4142588;28;20600;-55
2022/08/05 04:40:57;;;;;;;;;;;18.00;99.90;;;;;;4138421;28;20341;-55
2022/08/05 04:43:00;;;;;;;;;;;18.00;99.90;;;;;;4130324;28;19922;-56
2022/08/05 04:45:03;;;;;;;;;;;18.00;99.90;;;;;;4144606;28;20336;-56
2022/08/05 04:47:07;;;;;;;;;;;17.90;99.90;;;;;;4141103;28;19921;-55
2022/08/05 04:49:11;;;;;;;;;;;17.90;99.90;;;;;;4127450;28;19929;-56
2022/08/05 04:51:35;;;;;;;;;;;17.90;99.90;;;;;;4144367;28;19979;-56
2022/08/05 04:53:41;;;;;;;;;;;17.80;99.90;;;;;;4137864;28;19972;-56
2022/08/05 04:55:46;;;;;;;;;;;17.80;99.90;;;;;;4128550;28;19929;-55
2022/08/05 04:58:10;;;;;;;;;;;17.80;99.90;;;;;;4137482;28;20400;-56
2022/08/05 05:00:18;;;;;;;;;;;17.90;99.90;;;;;;4132940;28;20032;-55
2022/08/05 05:02:44;;;;;;;;;;;17.80;99.90;;;;;;4144401;28;19925;-56
2022/08/05 05:04:47;;;;;;;;;;;17.90;99.90;;;;;;4141956;28;20320;-54
2022/08/05 05:06:51;;;;;;;;;;;18.10;99.90;;;;;;4135838;28;20012;-55
2022/08/05 05:08:59;;;;;;;;;;;18.20;99.90;;;;;;4142598;28;20161;-56
2022/08/05 05:11:04;;;;;;;;;;;18.20;99.90;;;;;;4158375;28;19924;-55
2022/08/05 05:13:26;;;;;;;;;;;18.20;99.90;;;;;;4128669;28;19964;-57
2022/08/05 05:15:37;;;;;;;;;;;18.30;99.90;;;;;;4131263;28;20469;-56
2022/08/05 05:18:00;;;;;;;;;;;18.30;99.90;;;;;;4144446;28;19961;-57
2022/08/05 05:20:04;;;;;;;;;;;18.30;99.90;;;;;;4143938;28;19928;-57
2022/08/05 05:22:07;;;;;;;;;;;18.30;99.90;;;;;;4137475;28;20440;-56
2022/08/05 05:24:26;;;;;;;;;;;18.30;99.90;;;;;;4128627;28;19922;-57
2022/08/05 05:26:37;;;;;;;;;;;18.30;99.90;;;;;;4128278;28;19972;-56
2022/08/05 05:28:41;;;;;;;;;;;18.40;99.90;;;;;;4133447;28;20376;-56
2022/08/05 05:30:47;;;;;;;;;;;18.60;99.90;;;;;;4144117;28;19925;-56
2022/08/05 05:32:56;;;;;;;;;;;18.70;99.90;;;;;;4144056;28;20439;-56
2022/08/05 05:35:02;;;;;;;;;;;18.80;99.90;;;;;;4142449;28;20024;-57
2022/08/05 05:37:04;;;;;;;;;;;18.80;99.90;;;;;;4144310;28;19921;-55
2022/08/05 05:39:07;;;;;;;;;;;18.90;99.90;;;;;;4141170;28;19925;-57
2022/08/05 05:41:12;;;;;;;;;;;19.00;99.90;;;;;;4143555;28;19921;-56
2022/08/05 05:43:14;;;;;;;;;;;19.10;99.90;;;;;;4144343;28;20350;-56
2022/08/05 05:45:17;;;;;;;;;;;19.00;99.90;;;;;;4144715;28;20019;-56
2022/08/05 05:47:20;;;;;;;;;;;19.10;99.90;;;;;;4143444;28;20416;-57
2022/08/05 05:49:25;;;;;;;;;;;19.20;99.90;;;;;;4130366;28;19925;-57
2022/08/05 05:51:42;;;;;;;;;;;19.10;99.90;;;;;;4144531;28;19929;-57
2022/08/05 05:53:52;;;;;;;;;;;19.00;99.90;;;;;;4142119;28;20008;-56
2022/08/05 05:56:01;;;;;;;;;;;19.20;99.90;;;;;;4128389;28;20290;-56
2022/08/05 05:58:04;;;;;;;;;;;19.40;99.90;;;;;;4139080;28;19957;-57
2022/08/05 06:00:14;;;;;;;;;;;19.70;99.90;;;;;;4147340;28;19921;-57
2022/08/05 06:02:17;;;;;;;;;;;19.70;99.90;;;;;;4145032;28;19921;-56
2022/08/05 06:04:34;;;;;;;;;;;20.00;99.90;;;;;;4131189;28;20321;-56
2022/08/05 06:06:37;;;;;;;;;;;20.20;99.90;;;;;;4130423;28;19922;-58
2022/08/05 06:08:40;;;;;;;;;;;20.20;99.90;;;;;;4144261;28;20308;-57
2022/08/05 06:10:45;;;;;;;;;;;20.10;99.90;;;;;;4144058;28;19976;-57
2022/08/05 06:12:53;;;;;;;;;;;20.30;99.90;;;;;;4145819;28;19948;-57
2022/08/05 06:15:00;;;;;;;;;;;20.40;99.90;;;;;;4146131;28;19922;-56
2022/08/05 06:17:03;;;;;;;;;;;20.40;99.90;;;;;;4137388;28;20016;-56
2022/08/05 06:19:27;;;;;;;;;;;20.50;99.90;;;;;;4147111;28;19927;-56
2022/08/05 06:21:39;;;;;;;;;;;20.80;99.90;;;;;;4146984;28;19932;-57
2022/08/05 06:23:44;;;;;;;;;;;21.20;99.90;;;;;;4147498;28;19952;-57
2022/08/05 06:25:49;;;;;;;;;;;21.50;99.90;;;;;;4145680;28;20064;-57
2022/08/05 06:28:12;;;;;;;;;;;21.40;99.90;;;;;;4146445;28;19960;-57
2022/08/05 06:30:41;;;;;;;;;;;21.60;99.90;;;;;;4130550;28;19925;-57
2022/08/05 06:32:44;;;;;;;;;;;21.80;99.90;;;;;;4138322;28;19929;-59
2022/08/05 06:34:58;;;;;;;;;;;22.20;99.90;;;;;;4144548;28;20029;-57
2022/08/05 06:37:01;;;;;;;;;;;22.30;99.90;;;;;;4146924;28;19921;-56
2022/08/05 06:39:07;;;;;;;;;;;22.50;99.90;;;;;;4146110;28;19929;-56
2022/08/05 06:41:11;;;;;;;;;;;22.70;99.90;;;;;;4146107;28;19929;-56
2022/08/05 06:43:13;;;;;;;;;;;22.70;99.90;;;;;;4135265;28;19925;-57
2022/08/05 06:45:37;;;;;;;;;;;22.90;99.90;;;;;;4146694;28;19935;-57
2022/08/05 06:47:46;;;;;;;;;;;23.30;99.90;;;;;;4161443;28;19925;-58
2022/08/05 06:50:27;;;;;;;;;;;23.40;99.90;;;;;;4141107;28;20027;-57
2022/08/05 06:52:30;;;;;;;;;;;23.30;99.90;;;;;;4147052;28;19989;-56
2022/08/05 06:54:40;;;;;;;;;;;23.50;99.90;;;;;;4142952;28;20202;-58
2022/08/05 06:56:44;;;;;;;;;;;23.80;99.90;;;;;;4139426;28;19928;-57
2022/08/05 06:58:59;;;;;;;;;;;24.20;99.90;;;;;;4147054;28;19983;-56
2022/08/05 07:01:05;;;;;;;;;;;24.20;99.90;;;;;;4142530;28;19922;-59
2022/08/05 07:03:07;;;;;;;;;;;24.20;99.90;;;;;;4130813;28;20393;-57
2022/08/05 07:05:12;;;;;;;;;;;24.10;99.90;;;;;;4142431;28;19975;-56
2022/08/05 07:07:17;;;;;;;;;;;24.60;99.90;;;;;;4145905;28;20316;-56
2022/08/05 07:09:25;;;;;;;;;;;24.50;99.90;;;;;;4145523;28;20000;-57
2022/08/05 07:11:29;;;;;;;;;;;24.40;99.90;;;;;;4146579;28;20272;-56
2022/08/05 07:18:42;;;;;;;;;;;25.00;99.90;;;;;;4144961;28;20333;-56
2022/08/05 07:20:47;;;;;;;;;;;25.90;99.90;;;;;;4146511;28;19925;-58
2022/08/05 07:22:50;;;;;;;;;;;25.90;99.90;;;;;;4146779;28;19925;-57
2022/08/05 07:24:52;;;;;;;;;;;25.90;99.90;;;;;;4129773;28;19999;-56
2022/08/05 07:26:55;;;;;;;;;;;25.90;99.90;;;;;;4130015;28;19976;-57
2022/08/05 07:28:58;;;;;;;;;;;26.10;99.90;;;;;;4129041;28;19932;-57
2022/08/05 07:31:05;;;;;;;;;;;26.10;99.90;;;;;;4144824;28;19921;-57
2022/08/05 07:33:09;;;;;;;;;;;26.60;99.90;;;;;;4140928;28;19957;-58
2022/08/05 07:35:17;;;;;;;;;;;26.50;99.90;;;;;;4130100;28;19961;-59
2022/08/05 07:37:40;;;;;;;;;;;26.70;99.80;;;;;;4130259;28;19988;-56
2022/08/05 07:39:44;;;;;;;;;;;26.90;99.10;;;;;;4137834;28;19921;-57
2022/08/05 07:42:26;;;;;;;;;;;27.00;98.90;;;;;;4142625;28;20348;-57
2022/08/05 07:44:33;;;;;;;;;;;26.70;98.90;;;;;;4143647;28;19925;-56
2022/08/05 07:46:39;;;;;;;;;;;26.90;99.60;;;;;;4146201;28;19925;-57
2022/08/05 07:48:42;;;;;;;;;;;26.90;98.80;;;;;;4143513;28;20016;-56
2022/08/05 07:51:07;;;;;;;;;;;26.70;98.60;;;;;;4130050;28;19926;-57
2022/08/05 07:53:32;;;;;;;;;;;27.30;99.40;;;;;;4150980;28;19968;-58
2022/08/05 07:55:40;;;;;;;;;;;27.40;97.90;;;;;;4137528;28;20106;-57
2022/08/05 07:57:46;;;;;;;;;;;27.40;98.20;;;;;;4135676;28;19925;-57
2022/08/05 08:00:04;;;;;;;;;;;27.60;97.70;;;;;;4129853;28;20547;-58
2022/08/05 08:02:07;;;;;;;;;;;27.70;98.10;;;;;;4137495;28;20444;-58
2022/08/05 08:04:17;;;;;;;;;;;27.80;97.60;;;;;;4145749;28;19925;-57
2022/08/05 08:06:38;;;;;;;;;;;27.90;97.50;;;;;;4129663;28;20420;-56
2022/08/05 08:08:42;;;;;;;;;;;28.10;98.20;;;;;;4143328;28;19921;-56
2022/08/05 08:10:47;;;;;;;;;;;28.20;97.10;;;;;;4144984;28;19925;-57
2022/08/05 08:12:49;;;;;;;;;;;28.20;96.30;;;;;;4144851;28;19936;-57
2022/08/05 08:14:54;;;;;;;;;;;28.30;96.70;;;;;;4145137;28;20377;-58
2022/08/05 08:16:57;;;;;;;;;;;28.40;97.20;;;;;;4145132;28;19925;-58
2022/08/05 08:19:00;;;;;;;;;;;28.60;96.60;;;;;;4145297;28;19925;-57
2022/08/05 08:21:04;;;;;;;;;;;28.80;97.30;;;;;;4139025;28;19989;-57
2022/08/05 08:23:11;;;;;;;;;;;29.10;96.30;;;;;;4144475;28;19925;-56
2022/08/05 08:25:33;;;;;;;;;;;28.90;95.60;;;;;;4134991;28;19929;-57
2022/08/05 08:27:57;;;;;;;;;;;28.60;95.50;;;;;;4139864;28;19971;-57
2022/08/05 08:29:59;;;;;;;;;;;28.80;96.00;;;;;;4144342;28;19925;-56
2022/08/05 08:32:07;;;;;;;;;;;29.00;96.60;;;;;;4129548;28;19931;-57
2022/08/05 08:34:13;;;;;;;;;;;29.20;96.20;;;;;;4129269;28;19929;-57
2022/08/05 08:36:15;;;;;;;;;;;29.20;95.20;;;;;;4129420;28;19937;-57
2022/08/05 08:38:42;;;;;;;;;;;29.00;95.90;;;;;;4145392;28;19979;-56
2022/08/05 08:40:44;;;;;;;;;;;29.70;95.90;;;;;;4134588;28;19922;-57
2022/08/05 08:42:53;;;;;;;;;;;29.50;94.20;;;;;;4145640;28;19922;-56
2022/08/05 08:44:57;;;;;;;;;;;29.60;95.20;;;;;;4143425;28;20289;-56
2022/08/05 08:47:23;;;;;;;;;;;30.00;94.20;;;;;;4136649;28;19929;-56
2022/08/05 08:49:47;;;;;;;;;;;30.30;94.60;;;;;;4136295;28;20373;-57
2022/08/05 08:52:16;;;;;;;;;;;30.30;93.80;;;;;;4145187;28;19925;-57
2022/08/05 08:54:19;;;;;;;;;;;30.40;94.60;;;;;;4135055;28;19922;-57
2022/08/05 08:56:22;;;;;;;;;;;30.30;93.70;;;;;;4139854;28;19925;-56
2022/08/05 08:58:28;;;;;;;;;;;30.40;92.30;;;;;;4144586;28;19968;-57
2022/08/05 09:00:45;;;;;;;;;;;30.40;92.60;;;;;;4129253;28;19921;-56
2022/08/05 09:02:48;;;;;;;;;;;30.50;91.60;;;;;;4137576;28;20393;-58
2022/08/05 09:04:53;;;;;;;;;;;31.00;92.90;;;;;;4131414;28;20304;-57
2022/08/05 09:07:16;;;;;;;;;;;31.40;92.10;;;;;;4136126;28;19926;-57
2022/08/05 09:09:21;;;;;;;;;;;30.80;91.70;;;;;;4144997;28;20339;-58
2022/08/05 09:11:26;;;;;;;;;;;30.60;91.60;;;;;;4141647;28;19961;-57
2022/08/05 09:13:49;;;;;;;;;;;30.80;92.10;;;;;;4139521;28;19921;-57
2022/08/05 09:15:53;;;;;;;;;;;30.70;91.90;;;;;;4138135;28;19928;-57
2022/08/05 09:18:07;;;;;;;;;;;30.70;92.00;;;;;;4146054;28;20456;-57
2022/08/05 09:20:11;;;;;;;;;;;30.70;91.90;;;;;;4145166;28;20270;-57
2022/08/05 09:22:14;;;;;;;;;;;30.90;93.10;;;;;;4142378;28;19977;-57
2022/08/05 09:24:36;;;;;;;;;;;31.30;91.80;;;;;;4129620;28;19988;-56
2022/08/05 09:26:39;;;;;;;;;;;31.10;90.90;;;;;;4143806;28;19964;-57
2022/08/05 09:28:48;;;;;;;;;;;31.40;91.40;;;;;;4138323;28;19940;-58
2022/08/05 09:31:11;;;;;;;;;;;31.30;90.50;;;;;;4136571;28;19921;-56
2022/08/05 09:33:51;;;;;;;;;;;31.30;90.10;;;;;;4141093;28;19921;-57
2022/08/05 09:35:59;;;;;;;;;;;31.20;90.00;;;;;;4156520;28;19925;-56
2022/08/05 09:38:09;;;;;;;;;;;31.30;89.50;;;;;;4141077;28;20389;-59
2022/08/05 09:40:38;;;;;;;;;;;31.40;90.20;;;;;;4144552;28;20348;-58
2022/08/05 09:42:40;;;;;;;;;;;31.50;88.70;;;;;;4141118;28;19968;-57
2022/08/05 09:44:44;;;;;;;;;;;31.90;88.50;;;;;;4143774;28;19928;-58
2022/08/05 09:46:46;;;;;;;;;;;32.10;89.20;;;;;;4133997;28;19980;-57
2022/08/05 09:49:21;;;;;;;;;;;31.80;87.70;;;;;;4144208;28;19931;-58
2022/08/05 09:51:43;;;;;;;;;;;32.20;88.30;;;;;;4143287;28;19925;-57
2022/08/05 09:53:47;;;;;;;;;;;32.20;86.10;;;;;;4141513;28;19922;-57
2022/08/05 09:55:58;;;;;;;;;;;32.00;87.20;;;;;;4136988;28;20427;-57
2022/08/05 09:58:14;;;;;;;;;;;32.30;86.60;;;;;;4134868;28;19929;-57
2022/08/05 10:00:19;;;;;;;;;;;32.30;85.00;;;;;;4139369;28;20374;-56
2022/08/05 10:02:32;;;;;;;;;;;32.50;85.90;;;;;;4136054;28;19926;-57
2022/08/05 10:05:01;;;;;;;;;;;32.40;85.20;;;;;;4137875;28;20401;-57
2022/08/05 10:07:04;;;;;;;;;;;32.40;84.70;;;;;;4139389;28;19921;-57
2022/08/05 10:09:17;;;;;;;;;;;32.50;85.60;;;;;;4141879;28;20373;-57
2022/08/05 10:11:31;;;;;;;;;;;32.40;87.00;;;;;;4140299;28;19925;-57
2022/08/05 10:13:42;;;;;;;;;;;32.50;82.60;;;;;;4134122;28;19976;-57
2022/08/05 10:15:54;;;;;;;;;;;32.50;83.70;;;;;;4140828;28;19957;-57
2022/08/05 10:18:06;;;;;;;;;;;32.70;82.70;;;;;;4139248;28;19925;-57
2022/08/05 10:20:11;;;;;;;;;;;32.70;83.20;;;;;;4131325;28;19969;-57
2022/08/05 10:22:14;;;;;;;;;;;32.70;81.50;;;;;;4150649;28;19956;-58
2022/08/05 10:24:18;;;;;;;;;;;33.10;81.60;;;;;;4144526;28;19940;-57
2022/08/05 10:26:21;;;;;;;;;;;33.20;82.50;;;;;;4136710;28;19960;-58
2022/08/05 10:28:26;;;;;;;;;;;33.00;80.50;;;;;;4138529;28;19925;-58
2022/08/05 10:30:32;;;;;;;;;;;32.80;79.60;;;;;;4138353;28;19925;-58
2022/08/05 10:32:57;;;;;;;;;;;32.80;80.10;;;;;;4134502;28;19987;-57
2022/08/05 10:35:04;;;;;;;;;;;33.00;80.80;;;;;;4147865;28;19957;-57
2022/08/05 10:37:10;;;;;;;;;;;33.10;79.00;;;;;;4142431;28;20020;-57
2022/08/05 10:39:18;;;;;;;;;;;33.40;78.00;;;;;;4141950;28;19967;-58
2022/08/05 10:41:29;;;;;;;;;;;33.30;79.50;;;;;;4138838;28;20399;-57
2022/08/05 10:43:49;;;;;;;;;;;33.00;79.90;;;;;;4136058;28;20369;-57
2022/08/05 10:45:57;;;;;;;;;;;33.10;79.80;;;;;;4147236;28;20003;-57
2022/08/05 10:48:26;;;;;;;;;;;33.70;81.50;;;;;;4142490;28;19957;-58
2022/08/05 10:50:52;;;;;;;;;;;34.00;80.20;;;;;;4140354;28;19932;-58
2022/08/05 10:52:59;;;;;;;;;;;34.20;79.30;;;;;;4146059;28;20301;-57
2022/08/05 10:55:03;;;;;;;;;;;34.20;78.00;;;;;;4133996;28;19965;-58
2022/08/05 10:57:06;;;;;;;;;;;34.10;78.50;;;;;;4134904;28;19927;-58
2022/08/05 10:59:08;;;;;;;;;;;34.00;78.20;;;;;;4144962;28;20574;-57
2022/08/05 11:01:43;;;;;;;;;;;34.40;79.50;;;;;;4160001;28;19925;-58
2022/08/05 11:03:59;;;;;;;;;;;34.60;79.20;;;;;;4135409;28;19922;-57
2022/08/05 11:06:03;;;;;;;;;;;34.50;77.70;;;;;;4130887;28;19976;-57
2022/08/05 11:08:07;;;;;;;;;;;34.10;78.20;;;;;;4137507;28;19928;-57
2022/08/05 11:10:30;;;;;;;;;;;33.90;77.20;;;;;;4139820;28;20012;-57
2022/08/05 11:12:33;;;;;;;;;;;34.10;78.40;;;;;;4146263;28;19921;-57
2022/08/05 11:14:37;;;;;;;;;;;34.40;79.90;;;;;;4146630;28;19922;-57
2022/08/05 11:17:19;;;;;;;;;;;34.40;77.60;;;;;;4136719;28;20207;-57
2022/08/05 11:19:24;;;;;;;;;;;33.90;79.00;;;;;;4145182;28;20531;-58
2022/08/05 11:21:47;;;;;;;;;;;34.00;77.20;;;;;;4146549;28;20313;-57
2022/08/05 11:23:52;;;;;;;;;;;34.30;77.10;;;;;;4131959;28;19956;-58
2022/08/05 11:26:16;;;;;;;;;;;34.20;77.40;;;;;;4137091;28;19921;-57
2022/08/05 11:28:31;;;;;;;;;;;34.20;77.50;;;;;;4146140;28;19925;-58
2022/08/05 11:30:57;;;;;;;;;;;34.70;76.40;;;;;;4130501;28;20020;-57
2022/08/05 11:33:18;;;;;;;;;;;35.10;76.40;;;;;;4141144;28;19931;-57
2022/08/05 11:35:40;;;;;;;;;;;35.20;76.30;;;;;;4144943;28;19925;-58
2022/08/05 11:37:53;;;;;;;;;;;35.60;75.80;;;;;;4129096;28;19955;-58
2022/08/05 11:40:16;;;;;;;;;;;35.00;72.60;;;;;;4129868;28;20350;-59
2022/08/05 11:42:23;;;;;;;;;;;35.20;74.90;;;;;;4143393;28;20011;-60
2022/08/05 11:44:34;;;;;;;;;;;35.00;73.80;;;;;;4146343;28;19925;-59
2022/08/05 11:46:58;;;;;;;;;;;35.10;74.50;;;;;;4138516;28;19926;-58
2022/08/05 11:49:17;;;;;;;;;;;35.60;74.20;;;;;;4142950;28;19931;-59
2022/08/05 11:51:20;;;;;;;;;;;35.20;72.60;;;;;;4145804;28;19926;-60
2022/08/05 11:53:48;;;;;;;;;;;35.80;75.00;;;;;;4151488;28;20345;-59
2022/08/05 11:56:00;;;;;;;;;;;35.10;72.20;;;;;;4145741;28;20427;-59
2022/08/05 11:58:23;;;;;;;;;;;35.30;73.90;;;;;;4137649;28;19925;-61
2022/08/05 12:00:30;;;;;;;;;;;35.60;72.40;;;;;;4141237;28;20348;-59
2022/08/05 12:02:34;;;;;;;;;;;35.60;72.40;;;;;;4133978;28;19973;-60
2022/08/05 12:04:42;;;;;;;;;;;35.80;73.70;;;;;;4138652;28;19960;-59
2022/08/05 12:06:46;;;;;;;;;;;36.30;73.00;;;;;;4160891;28;19927;-60
2022/08/05 12:08:52;;;;;;;;;;;36.20;73.20;;;;;;4143506;28;20516;-60
2022/08/05 12:10:57;;;;;;;;;;;36.40;72.80;;;;;;4144869;28;20389;-59
2022/08/05 12:13:02;;;;;;;;;;;36.70;72.50;;;;;;4144533;28;19929;-60
2022/08/05 12:15:19;;;;;;;;;;;36.50;70.80;;;;;;4144971;28;20023;-59
2022/08/05 12:17:37;;;;;;;;;;;35.80;70.60;;;;;;4138438;28;19926;-59
2022/08/05 12:19:59;;;;;;;;;;;35.30;70.90;;;;;;4133478;28;19925;-60
2022/08/05 12:22:25;;;;;;;;;;;35.50;71.10;;;;;;4145508;28;20138;-61
2022/08/05 12:24:27;;;;;;;;;;;35.40;71.90;;;;;;4131487;28;19922;-59
2022/08/05 12:26:31;;;;;;;;;;;35.00;69.50;;;;;;4134112;28;19928;-60
2022/08/05 12:28:34;;;;;;;;;;;35.00;71.10;;;;;;4145138;28;19927;-59
2022/08/05 12:30:40;;;;;;;;;;;34.70;69.50;;;;;;4145108;28;19960;-60
2022/08/05 12:33:03;;;;;;;;;;;34.90;70.50;;;;;;4138870;28;20377;-59
2022/08/05 12:35:09;;;;;;;;;;;35.00;69.00;;;;;;4129551;28;19980;-61
2022/08/05 12:37:11;;;;;;;;;;;34.50;69.80;;;;;;4131896;28;19922;-59
2022/08/05 12:39:18;;;;;;;;;;;34.40;69.70;;;;;;4145638;28;20188;-59
2022/08/05 12:41:22;;;;;;;;;;;34.80;69.20;;;;;;4143706;28;19960;-58
2022/08/05 12:43:24;;;;;;;;;;;34.80;70.50;;;;;;4137028;28;19921;-57